Terminal Aerodrome Forecast
Issued by NWS Charleston, WV

Current Version | Previous Version | Graphics & Text | Print | Product List | Glossary Off
Versions: 1 2 3 4 5 6 7 8 9 10 11 12 13 14 15 16 17 18 19 20 21 22 23 24

000
FTUS41 KRLX 050959 AAA
TAFPKB
TAF AMD
KPKB 050959Z 0510/0606 00000KT 1/4SM FG VV001
      TEMPO 0510/0513 2SM BR SCT002
     FM051300 17004KT 3SM BR BKN002
      TEMPO 0513/0514 6SM BR HZ SCT003
     FM051400 17004KT P6SM BKN200
     FM051900 VRB03KT P6SM BKN040
     FM060200 00000KT P6SM SCT080
     FM060500 00000KT 3SM BR SCT080=

USA.gov is the U.S. government's official web portal to all federal, state and local government web resources and services.